KFLG/FLG METAR and TAF weather

Enter ICAO airport designator
Station Type Date Time Source
KFLG METAR 2023/12/03 17:57 UTC NOAA

KFLG 031757Z 24007KT 10SM CLR 07/M10 A3027 RMK AO2 SLP227 T00721100 10078 21056 50005


Station Type Date Time Source
KFLG Decoded METAR 2023/12/03 17:57 UTC NOAA

FLAGSTAFF PULLIAM AIRPORT, AZ, United States (KFLG) 35-08N 111-40W 2134M
Dec 03, 2023 - 12:57 PM EST / 2023.12.03 1757 UTC
Wind: from the WSW (240 degrees) at 8 MPH (7 KT):0
Visibility: 10 mile(s):0
Sky conditions: clear
Temperature: 45.0 F (7.2 C)
Dew Point: 14.0 F (-10.0 C)
Relative Humidity: 28%
Pressure (altimeter): 30.27 in. Hg (1025 hPa)
Pressure tendency: 0.01 inches (0.5 hPa) higher than three hours ago
ob: KFLG 031757Z 24007KT 10SM CLR 07/M10 A3027 RMK AO2 SLP227 T00721100 10078 21056 50005
cycle: 18

Station Type Date Time Source
KFLG TAF 2023/12/03 18:30 UTC NOAA

TAF KFLG 031729Z 0318/0418 23009G17KT P6SM FEW200
FM040100 VRB04KT P6SM SCT200

Example: see airport list